Figueiropolis d'Oeste, Brazil
Current Conditions -  °F | °C
As of 2:00 PM on Thursday 18 Dec 2014 (Local Time) from SLSI Reporting Station
Overcast Overcast  
Wind Chill: 75°   Ceiling: 1000
Heat Index: 75°   Visibility: 6mi
Dew Point: 73°   Wind: 0mph
Humidity: 94%   Direction: NA
Pressure: 29.85"   Gusts: NA
Location:  15.45°S, 58.74°W
Report Text: SLSI 181700Z 00000KT 9999 BKN010 OVC070 24/23 Q1011
Loading
Personal Weather Stations






























Interactive Weather Map New forecast layout! Learn more

10-Day Weather Forecast

Advertisements
Track Severe Weather on mobile